Terminal Aerodrome Forecast
Issued by NWS Bismarck, ND

Home | Current Version | Previous Version | Graphics & Text | Print | Product List | Glossary On
Versions: 1 2 3 4 5 6 7 8 9 10 11 12 13 14 15 16 17 18
000
FTUS43 KBIS 031700
TAFISN
TAF
KISN 031737Z 0318/0418 31019G28KT P6SM BKN025
     FM032100 31015G21KT P6SM BKN035
     FM040000 32011KT P6SM SCT025 OVC060=

USA.gov is the U.S. government's official web portal to all federal, state and local government web resources and services.